AirNav   Everest Fuels
 
 1012 users online  

46NY Savannah Airport
Savannah, New York, USA

GOING TO SAVANNAH?


FAA INFORMATION EFFECTIVE 02 JANUARY 2020

Location

FAA Identifier: 46NY
Lat/Long: 43-01-07.6800N 076-45-39.6000W
43-01.128000N 076-45.660000W
43.0188000,-76.7610000
(estimated)
Elevation: 465 ft. / 142 m (estimated)
Variation: 12W (2000)
From city: 3 miles S of SAVANNAH, NY
Time zone: UTC -5 (UTC -4 during Daylight Saving Time)
Zip code: 13148

Airport Operations

Airport use: Private use. Permission required prior to landing
Activation date: 02/2002
Control tower: no
ARTCC: BOSTON CENTER
FSS: BUFFALO FLIGHT SERVICE STATION
Attendance: MAR-NOV 0800-1700
Wind indicator: yes
Segmented circle: no

Airport Communications

WX AWOS-3 at 0G7 (8 nm S): 120.0 (315-568-5362)
WX AWOS-3P at 6B9 (15 nm SE): 120.125 (315-685-5790)

Nearby radio navigation aids

VOR radial/distance  VOR name  Freq  Var
SYRr262/25.8SYRACUSE VORTAC117.0011W
ITHr347/34.1ITHACA VOR/DME111.8010W

 
NDB name  Hdg/Dist  Freq  Var  ID
PENN YAN042/26.026012WPYA .--. -.-- .-

Airport Services

Runway Information

Runway 18/36

Dimensions: 2600 x 60 ft. / 792 x 18 m
Surface: asphalt/turf
RY 18/36 NORTH 1,400 FT ASPH, SOUTH 1,200 FT TURF.
RUNWAY 18  RUNWAY 36
Traffic pattern: leftleft

Airport Ownership and Management from official FAA records

Ownership: Privately-owned
Owner: FREE AIR AVIATION LLC
130 EAST RD
SAVANNAH, NY 13146
Phone 315-391-9182
Manager: MARK BELLAMY
130 EAST RD, 130 EAST RD
SAVANNAH, NY 13146
Phone 315-391-9182

Airport Operational Statistics

Aircraft based on the field: 8
Single engine airplanes: 5
Multi engine airplanes: 1
Ultralights: 2
    
Aircraft operations: avg 33/month
100% local general aviation

Additional Remarks

FOR CD CTC SYRACUSE APCH AT 315-455-6218.

Instrument Procedures

There are no published instrument procedures at 46NY.

Some nearby airports with instrument procedures:

0G7 - Finger Lakes Regional Airport (8 nm S)
B16 - Whitfords Airport (10 nm E)
6B9 - Skaneateles Aero Drome (15 nm SE)
KSDC - Williamson-Sodus Airport (20 nm NW)
KIUA - Canandaigua Airport (26 nm W)
 
Loc | Ops | Rwys | IFR | FBO | Links
Com | Nav | Svcs | Stats | Notes
Area around 46NY (Savannah Airport)
 
Road maps at: MapQuest Bing Google
 
Aerial photo
No photo
 
Sectional chart

 
Airport distance calculator
Flying to Savannah Airport? Find the distance to fly.

From to 46NY

Sunrise and sunset
Times for 23-Jan-2020
 Local
(UTC-5)
 Zulu
(UTC)
Morning civil twilight07:0112:01
Sunrise07:3212:32
Sunset17:0622:06
Evening civil twilight17:3722:37

Current date and time
Zulu (UTC)  24-Jan-2020 03:17:08
Local (UTC-5)  23-Jan-2020 22:17:08
 
METAR
K6B9 
15nm SE 
240255Z AUTO 00000KT 10SM CLR M03/M06 A3027 RMK AO2
KSDC 
20nm NW 
240255Z AUTO 00000KT 10SM CLR M02/M06 A3030 RMK AO2
KPEO 
26nm SW 
240253Z AUTO 19003KT 10SM CLR M03/M07 A3026 RMK AO2 SLP263 T10331072 50000
KFZY 
26nm NE 
240254Z AUTO 00000KT 10SM CLR M03/M09 A3029 RMK AO2 SLP265 T10281094 58003
KSYR 
30nm E 
240254Z 10003KT 10SM FEW160 OVC240 M03/M08 A3030 RMK AO2 SLP263 T10331083 58002
TAF
KSYR 
30nm E 
231731Z 2318/2418 VRB03KT P6SM BKN250 FM241100 VRB04KT P6SM BKN150
KITH 
36nm SE 
231731Z 2318/2418 16005KT P6SM BKN250 FM240900 13005KT P6SM BKN150
NOTAMs
Click for the latest NOTAMs
NOTAMs are issued by the DoD/FAA and will open in a separate window not controlled by AirNav.

 

 
 

Would you like to see your business listed on this page?

 If your business provides an interesting product or service to pilots, flight crews, aircraft, or users of the Savannah Airport, you should consider listing it here.  To start the listing process, click on the button below
 
Add a business
 

Other Pages about Savannah Airport

Update a link
 
Copyright © AirNav, LLC. All rights reserved. Privacy Policy  Contact